64474 station(s) have been heard in the last 24 hours.

<< 72 73 74 75 76 77 78 >>
  Name/Id Latest heard Comment/Other Map
Symbol YO5BRE-10 1788471073 Igate Lora,0,1W,ant.5dB,alt 33m,Oradea Batt=4.26V, Map
Symbol KNFRVR 1788471073 KC0MKS-10 Knife River MN DigiGate Map
Symbol gfz26rggq 1788471073 Earthquake 4.7 | Xizang | depth 10.0 km | occurred on 3/9/2026 at 08:16:36 UTC, source GFZ Map
Symbol N0ZOJ-9 1788471073 `_5 Map
Symbol KO4PLT-B 1788471073 70cm Voice (D-Star) 434.20000MHz +0.0000MHz Map
Symbol ER-ED5YAJ 1788471073 439.425MHz T000 R120k http://www.urevalencia.es Map
Symbol DL0GT-10 1788471073 LoRa APRS iGate Hofstetten - 433,775MHz Map
Symbol KJ7ORK-B 1788471073 440 Voice 434.00000MHz +0.0000MHz Map
Symbol OE3UKW 1788471073 .PCWS2.99.9E31 Map
Symbol IT9GXT-9 1788471073 APRS Map
Symbol CT2HKY-C 1788471073 2m Voice (D-Star) 144.88750MHz +0.0000MHz Map
Symbol TA3NHM-2 1788471073 KM38RO Fixed Station Map
Symbol K4DOX-2 1788471073 iGate K4DOX originator Map
Symbol DB0TVI-10 1788471073 LoRa-APRS iGATE SW:OE5BPA HW:DM2HEY Map
Symbol EA1IUX G 1788471073 440 Voice 430.40000MHz +0.0000MHz Map
Symbol WC4PEM-6 1788471073 Map
Symbol KI5MIL-B 1788471073 70cm Voice (D-Star) 433.00000MHz +0.0000MHz Map
Symbol APRS-RPTR 1788471073 146820p000 in Virden, IL Map
Symbol 145.510 1788471073 VARA FM DIGI WD4ITN-4 Map
Symbol gfz26rgmp 1788471073 Earthquake 6.3 | Fox Islands, Aleutian Islands | depth 23.0 km | occurred on 3/9/2026 at 11:17:22 UTC, source GFZ Map
Symbol G7UKK-10 1788471073 144.800MHz Rx IGate and Weather Station near HudderSfield. Map
Symbol KN4IJF-1 1788471073 2m APRS Yorkshire DIGI/Igate Map
Symbol ED1ZAX-R 1788471073 438.525MHz -7.6 DIGITAL DMR Brandmeister Map
Symbol W5TMP B 1788471073 70cm Voice (D-Star) 442.50000MHz +0.0000MHz Map
Symbol 146.76-/r 1788471073 R30M K2IQ UARC Map
Symbol VR2HK-13 1788471073 WX/IGate 144.640 A12 12.4V 33.0C Map
Symbol DG8OB-14 1788471073 LoRa APRS igate by CA2RXU (433.775 MHz) RX only Map
Symbol RA1AMW-13 1788471073 Meteosonde buster rdzTTGOsonde-dev20250218 Map
Symbol NN3X-10 1788471073 Map
Symbol EI7FXD-B 1788471073 70cm Voice (D-Star) 430.25000MHz +9.0000MHz Map
Symbol NV8P-9 1788471073 `_4 Map
Symbol OE1ACM-27 1788471073 LoRaAPRSGW_v0.8 Temp:33.8C Pressure:1000.6hPa Humidity:30.0% Map
Symbol KY4K-10 1788471073 W3,KYn, Henderson, Ky Map
Symbol gfz26rgcg 1788471073 Earthquake 5.1 | Near Coast of Central Chile | depth 58.9 km | occurred on 3/9/2026 at 06:04:03 UTC, source GFZ Map
Symbol HK1E-9 1788471073 HK1E-9 RT73 Map
Symbol W2GLD-15 1788471073 445.075MHz T141.3 ASL3 Mobile Node Map
Symbol IV6ZJU-13 1788471073 LoRa APRS Digipeater Batt=4.25V Map
Symbol WB0VHB B 1788471073 70cm Voice (D-Star) 444.52500MHz +5.0000MHz Map
Symbol N9NDF 1788471073 eMB64 Map
Symbol W5TQ-4 1788471073 WIDE ARESTC/N W5TQ AUSTIN TX TC ARES V1.79 Map
Symbol IK6ZNK-3 1788471073 eCumuluSFO Map
Symbol N4BSA-9 1788471073 Map
Symbol ED1ZBG-10 1788471073 Map
Symbol EA5AER-9 1788471073 Map
Symbol 146.940/R 1788471073 146.940MHz T088 R45m KK4FWU Map
Symbol OE3KAR-D 1788471073 70cm MMDVM Voice (DMR) 431.07500MHz +0.0000MHz, APRS for DMRGateway Map
Symbol DX3L-7 1788471073 BBS & RMS on 145.220 Map
Symbol YO3WDW-1 1788471073 LoRa APRS Map
Symbol W1DMR-3 1788471073 Map
Symbol UR4SWG-14 1788471073 Map